Pagrindinis puslapis
METAR-TAF:

METAR-TAF

Oro uostai :

Phrė, Tailandas

platuma: 18-10N, ilguma: 100-10E, Aukštis: 161 m

Dabartinis oras

Ataskaita buvo paskelbta 5 valandos ir 39 minutes, ne 11:00 UTC
Vėjas 1 kt nuo kintamojo kryptimis
Temperatūra 25°C
Drėgmė 32%
Slėgis 1007 hPa
Matomumas: 4000 m
migla

METAR: VTCP 271100Z VRB01KT 4000 HZ NSC 25/07 Q1007 NOSIG

Laikas: 23:39 (16:39 UTC)

Prognozė

Ataskaita buvo paskelbta 5 valandos ir 39 minutes, ne 11:00 UTC
Prognozė galioja nuo 27 metu 12 UTC su 28 metu 12 UTC
Vėjas 5 kt iš Pietų/Pietvakarių
Matomumas: 4000 m
migla
Tapsmas
nuo 28 metu 00 UTC su 28 metu 02 UTC
Matomumas: 1500 m
rūkana
Tapsmas
nuo 28 metu 04 UTC su 28 metu 06 UTC
Matomumas: 5000 m
migla

TAF: VTCP 271100Z 2712/2812 20005KT 4000 HZ NSC BECMG 2800/2802 1500 BR BECMG 2804/2806 5000 HZ

Orai ataskaitas ir orų prognozės (METAR, TAF).

turimą stotys yra geltonos ir raudonos taškus žemėlapyje.

Perkelti pele per norėdami pamatyti stoties vardą.

Tada spustelėkite, norėdami matyti oro stebėjimo ir prognozės.

Norėdami pakeisti žemėlapį: spustelėkite ant žalios mygtukų su juodo kryžiaus žemyn,; žalią mygtuką su brūkšneliu, jei norite nutolinti; arba žalių rodyklių gretimoms žemėlapius.


METAR-TAF: